sensor_id;sensor_type;location;lat;lon;timestamp;P1;durP1;ratioP1;P2;durP2;ratioP2
8187;SDS011;4135;49.184;9.722;2023-04-03T00:01:44;2.05;;;1.10;;
8187;SDS011;4135;49.184;9.722;2023-04-03T00:04:14;3.25;;;1.10;;
8187;SDS011;4135;49.184;9.722;2023-04-03T00:06:44;1.40;;;0.93;;
8187;SDS011;4135;49.184;9.722;2023-04-03T00:09:13;3.33;;;0.80;;
8187;SDS011;4135;49.184;9.722;2023-04-03T00:11:43;1.65;;;0.95;;
8187;SDS011;4135;49.184;9.722;2023-04-03T00:14:12;2.85;;;0.60;;
8187;SDS011;4135;49.184;9.722;2023-04-03T00:16:42;2.97;;;1.02;;
8187;SDS011;4135;49.184;9.722;2023-04-03T00:19:11;4.22;;;1.00;;
8187;SDS011;4135;49.184;9.722;2023-04-03T00:21:41;2.25;;;1.05;;
8187;SDS011;4135;49.184;9.722;2023-04-03T00:24:10;2.47;;;0.65;;
8187;SDS011;4135;49.184;9.722;2023-04-03T00:26:40;4.85;;;0.95;;
8187;SDS011;4135;49.184;9.722;2023-04-03T00:29:10;1.65;;;0.63;;
8187;SDS011;4135;49.184;9.722;2023-04-03T00:31:39;2.25;;;1.10;;
8187;SDS011;4135;49.184;9.722;2023-04-03T00:34:09;2.85;;;0.90;;
8187;SDS011;4135;49.184;9.722;2023-04-03T00:36:39;1.52;;;0.80;;
8187;SDS011;4135;49.184;9.722;2023-04-03T00:39:08;0.95;;;0.52;;
8187;SDS011;4135;49.184;9.722;2023-04-03T00:41:38;1.55;;;0.68;;
8187;SDS011;4135;49.184;9.722;2023-04-03T00:44:18;1.80;;;0.85;;
8187;SDS011;4135;49.184;9.722;2023-04-03T00:47:11;1.75;;;0.60;;
8187;SDS011;4135;49.184;9.722;2023-04-03T00:49:44;1.05;;;0.50;;
8187;SDS011;4135;49.184;9.722;2023-04-03T00:52:16;1.88;;;0.75;;
8187;SDS011;4135;49.184;9.722;2023-04-03T00:54:48;1.15;;;0.60;;
8187;SDS011;4135;49.184;9.722;2023-04-03T00:57:21;2.28;;;0.98;;
8187;SDS011;4135;49.184;9.722;2023-04-03T00:59:52;2.10;;;0.82;;
8187;SDS011;4135;49.184;9.722;2023-04-03T01:02:26;2.80;;;1.10;;
8187;SDS011;4135;49.184;9.722;2023-04-03T01:04:56;1.20;;;0.68;;
8187;SDS011;4135;49.184;9.722;2023-04-03T01:07:26;1.27;;;0.52;;
8187;SDS011;4135;49.184;9.722;2023-04-03T01:10:04;1.88;;;0.80;;
8187;SDS011;4135;49.184;9.722;2023-04-03T01:12:37;2.42;;;0.65;;
8187;SDS011;4135;49.184;9.722;2023-04-03T01:15:10;2.72;;;0.82;;
8187;SDS011;4135;49.184;9.722;2023-04-03T01:23:09;1.20;;;0.50;;
8187;SDS011;4135;49.184;9.722;2023-04-03T01:25:54;1.60;;;0.50;;
8187;SDS011;4135;49.184;9.722;2023-04-03T01:28:26;0.70;;;0.63;;
8187;SDS011;4135;49.184;9.722;2023-04-03T01:33:41;0.80;;;0.55;;
8187;SDS011;4135;49.184;9.722;2023-04-03T01:36:16;1.65;;;1.15;;
8187;SDS011;4135;49.184;9.722;2023-04-03T01:38:51;1.05;;;0.68;;
8187;SDS011;4135;49.184;9.722;2023-04-03T01:41:21;0.57;;;0.47;;
8187;SDS011;4135;49.184;9.722;2023-04-03T01:43:51;1.15;;;0.52;;
8187;SDS011;4135;49.184;9.722;2023-04-03T01:46:21;1.20;;;0.63;;
8187;SDS011;4135;49.184;9.722;2023-04-03T01:48:51;1.25;;;0.60;;
8187;SDS011;4135;49.184;9.722;2023-04-03T01:51:21;1.20;;;0.60;;
8187;SDS011;4135;49.184;9.722;2023-04-03T01:53:51;1.48;;;1.00;;
8187;SDS011;4135;49.184;9.722;2023-04-03T01:56:20;2.08;;;0.60;;
8187;SDS011;4135;49.184;9.722;2023-04-03T01:58:50;1.23;;;0.68;;
8187;SDS011;4135;49.184;9.722;2023-04-03T02:01:20;1.73;;;0.82;;
8187;SDS011;4135;49.184;9.722;2023-04-03T02:03:50;2.05;;;0.77;;
8187;SDS011;4135;49.184;9.722;2023-04-03T02:06:19;2.22;;;0.80;;
8187;SDS011;4135;49.184;9.722;2023-04-03T02:08:49;3.03;;;0.60;;
8187;SDS011;4135;49.184;9.722;2023-04-03T02:11:18;1.27;;;0.90;;
8187;SDS011;4135;49.184;9.722;2023-04-03T02:13:49;2.40;;;0.73;;
8187;SDS011;4135;49.184;9.722;2023-04-03T02:16:18;0.82;;;0.43;;
8187;SDS011;4135;49.184;9.722;2023-04-03T02:18:48;1.48;;;0.85;;
8187;SDS011;4135;49.184;9.722;2023-04-03T02:21:17;1.08;;;0.65;;
8187;SDS011;4135;49.184;9.722;2023-04-03T02:23:47;0.70;;;0.40;;
8187;SDS011;4135;49.184;9.722;2023-04-03T02:26:16;1.25;;;0.77;;
8187;SDS011;4135;49.184;9.722;2023-04-03T02:28:46;1.48;;;0.70;;
8187;SDS011;4135;49.184;9.722;2023-04-03T02:31:15;0.77;;;0.68;;
8187;SDS011;4135;49.184;9.722;2023-04-03T02:33:45;1.50;;;0.63;;
8187;SDS011;4135;49.184;9.722;2023-04-03T02:36:14;2.03;;;0.60;;
8187;SDS011;4135;49.184;9.722;2023-04-03T02:38:44;0.52;;;0.35;;
8187;SDS011;4135;49.184;9.722;2023-04-03T02:41:14;2.80;;;0.77;;
8187;SDS011;4135;49.184;9.722;2023-04-03T02:43:44;1.08;;;0.50;;
8187;SDS011;4135;49.184;9.722;2023-04-03T02:46:13;2.22;;;0.93;;
8187;SDS011;4135;49.184;9.722;2023-04-03T02:48:44;0.85;;;0.43;;
8187;SDS011;4135;49.184;9.722;2023-04-03T02:51:14;0.88;;;0.60;;
8187;SDS011;4135;49.184;9.722;2023-04-03T02:53:43;3.38;;;0.60;;
8187;SDS011;4135;49.184;9.722;2023-04-03T02:56:13;0.82;;;0.65;;
8187;SDS011;4135;49.184;9.722;2023-04-03T02:58:42;1.20;;;0.50;;
8187;SDS011;4135;49.184;9.722;2023-04-03T03:01:12;1.40;;;0.60;;
8187;SDS011;4135;49.184;9.722;2023-04-03T03:03:41;0.40;;;0.35;;
8187;SDS011;4135;49.184;9.722;2023-04-03T03:06:12;1.67;;;0.50;;
8187;SDS011;4135;49.184;9.722;2023-04-03T03:08:44;1.75;;;0.57;;
8187;SDS011;4135;49.184;9.722;2023-04-03T03:11:13;0.98;;;0.55;;
8187;SDS011;4135;49.184;9.722;2023-04-03T03:13:44;1.55;;;0.47;;
8187;SDS011;4135;49.184;9.722;2023-04-03T03:16:14;4.07;;;0.73;;
8187;SDS011;4135;49.184;9.722;2023-04-03T03:18:43;0.60;;;0.50;;
8187;SDS011;4135;49.184;9.722;2023-04-03T03:21:13;2.53;;;0.77;;
8187;SDS011;4135;49.184;9.722;2023-04-03T03:23:43;2.20;;;0.85;;
8187;SDS011;4135;49.184;9.722;2023-04-03T03:26:13;0.40;;;0.30;;
8187;SDS011;4135;49.184;9.722;2023-04-03T03:28:42;1.10;;;0.52;;
8187;SDS011;4135;49.184;9.722;2023-04-03T03:31:12;2.25;;;0.70;;
8187;SDS011;4135;49.184;9.722;2023-04-03T03:33:41;0.70;;;0.50;;
8187;SDS011;4135;49.184;9.722;2023-04-03T03:36:11;2.47;;;0.70;;
8187;SDS011;4135;49.184;9.722;2023-04-03T03:38:40;1.75;;;0.43;;
8187;SDS011;4135;49.184;9.722;2023-04-03T03:41:10;0.57;;;0.50;;
8187;SDS011;4135;49.184;9.722;2023-04-03T03:43:39;1.23;;;0.63;;
8187;SDS011;4135;49.184;9.722;2023-04-03T03:46:09;1.40;;;0.50;;
8187;SDS011;4135;49.184;9.722;2023-04-03T03:48:38;1.48;;;0.50;;
8187;SDS011;4135;49.184;9.722;2023-04-03T03:51:08;0.80;;;0.52;;
8187;SDS011;4135;49.184;9.722;2023-04-03T03:53:37;0.82;;;0.30;;
8187;SDS011;4135;49.184;9.722;2023-04-03T03:56:07;0.63;;;0.52;;
8187;SDS011;4135;49.184;9.722;2023-04-03T03:58:37;1.00;;;0.45;;
8187;SDS011;4135;49.184;9.722;2023-04-03T04:01:06;0.95;;;0.40;;
8187;SDS011;4135;49.184;9.722;2023-04-03T04:03:36;4.35;;;0.50;;
8187;SDS011;4135;49.184;9.722;2023-04-03T04:06:06;1.27;;;0.60;;
8187;SDS011;4135;49.184;9.722;2023-04-03T04:08:35;0.60;;;0.40;;
8187;SDS011;4135;49.184;9.722;2023-04-03T04:11:05;0.65;;;0.22;;
8187;SDS011;4135;49.184;9.722;2023-04-03T04:13:35;0.77;;;0.45;;
8187;SDS011;4135;49.184;9.722;2023-04-03T04:16:04;1.90;;;0.50;;
8187;SDS011;4135;49.184;9.722;2023-04-03T04:18:34;1.98;;;0.77;;
8187;SDS011;4135;49.184;9.722;2023-04-03T04:21:04;1.40;;;0.68;;
8187;SDS011;4135;49.184;9.722;2023-04-03T04:23:33;0.98;;;0.40;;
8187;SDS011;4135;49.184;9.722;2023-04-03T04:26:03;1.00;;;0.50;;
8187;SDS011;4135;49.184;9.722;2023-04-03T04:28:33;0.93;;;0.60;;
8187;SDS011;4135;49.184;9.722;2023-04-03T04:31:02;1.75;;;0.68;;
8187;SDS011;4135;49.184;9.722;2023-04-03T04:33:32;0.47;;;0.40;;
8187;SDS011;4135;49.184;9.722;2023-04-03T04:36:01;2.38;;;0.65;;
8187;SDS011;4135;49.184;9.722;2023-04-03T04:38:31;3.60;;;1.20;;
8187;SDS011;4135;49.184;9.722;2023-04-03T04:41:00;3.08;;;0.80;;
8187;SDS011;4135;49.184;9.722;2023-04-03T04:43:30;1.77;;;0.68;;
8187;SDS011;4135;49.184;9.722;2023-04-03T04:46:00;1.83;;;0.75;;
8187;SDS011;4135;49.184;9.722;2023-04-03T04:48:31;6.28;;;1.02;;
8187;SDS011;4135;49.184;9.722;2023-04-03T04:51:01;2.03;;;0.95;;
8187;SDS011;4135;49.184;9.722;2023-04-03T04:53:31;7.57;;;0.90;;
8187;SDS011;4135;49.184;9.722;2023-04-03T04:56:00;3.60;;;0.90;;
8187;SDS011;4135;49.184;9.722;2023-04-03T04:58:30;1.58;;;0.93;;
8187;SDS011;4135;49.184;9.722;2023-04-03T05:01:00;3.10;;;1.02;;
8187;SDS011;4135;49.184;9.722;2023-04-03T05:03:30;5.40;;;1.08;;
8187;SDS011;4135;49.184;9.722;2023-04-03T05:06:00;1.10;;;0.50;;
8187;SDS011;4135;49.184;9.722;2023-04-03T05:08:30;2.75;;;1.13;;
8187;SDS011;4135;49.184;9.722;2023-04-03T05:10:59;4.32;;;0.88;;
8187;SDS011;4135;49.184;9.722;2023-04-03T05:13:29;3.15;;;1.05;;
8187;SDS011;4135;49.184;9.722;2023-04-03T05:15:58;5.28;;;1.10;;
8187;SDS011;4135;49.184;9.722;2023-04-03T05:18:28;7.65;;;1.02;;
8187;SDS011;4135;49.184;9.722;2023-04-03T05:20:57;3.03;;;1.10;;
8187;SDS011;4135;49.184;9.722;2023-04-03T05:23:27;3.60;;;1.20;;
8187;SDS011;4135;49.184;9.722;2023-04-03T05:25:57;6.38;;;1.10;;
8187;SDS011;4135;49.184;9.722;2023-04-03T05:28:27;3.60;;;1.20;;
8187;SDS011;4135;49.184;9.722;2023-04-03T05:30:57;6.22;;;1.35;;
8187;SDS011;4135;49.184;9.722;2023-04-03T05:33:27;1.23;;;0.73;;
8187;SDS011;4135;49.184;9.722;2023-04-03T05:36:01;3.42;;;1.27;;
8187;SDS011;4135;49.184;9.722;2023-04-03T05:38:32;2.20;;;1.70;;
8187;SDS011;4135;49.184;9.722;2023-04-03T05:41:02;7.25;;;1.40;;
8187;SDS011;4135;49.184;9.722;2023-04-03T05:43:32;4.43;;;1.80;;
8187;SDS011;4135;49.184;9.722;2023-04-03T05:46:02;5.47;;;1.13;;
8187;SDS011;4135;49.184;9.722;2023-04-03T05:48:32;7.70;;;1.73;;
8187;SDS011;4135;49.184;9.722;2023-04-03T05:51:01;3.53;;;1.30;;
8187;SDS011;4135;49.184;9.722;2023-04-03T05:53:31;4.50;;;1.63;;
8187;SDS011;4135;49.184;9.722;2023-04-03T05:56:05;5.15;;;1.70;;
8187;SDS011;4135;49.184;9.722;2023-04-03T05:58:34;2.40;;;1.00;;
8187;SDS011;4135;49.184;9.722;2023-04-03T06:01:04;6.05;;;1.98;;
8187;SDS011;4135;49.184;9.722;2023-04-03T06:03:34;4.53;;;1.63;;
8187;SDS011;4135;49.184;9.722;2023-04-03T06:06:04;3.92;;;1.60;;
8187;SDS011;4135;49.184;9.722;2023-04-03T06:08:34;4.63;;;1.95;;
8187;SDS011;4135;49.184;9.722;2023-04-03T06:11:03;10.60;;;2.50;;
8187;SDS011;4135;49.184;9.722;2023-04-03T06:13:34;4.88;;;1.20;;
8187;SDS011;4135;49.184;9.722;2023-04-03T06:16:04;3.03;;;1.52;;
8187;SDS011;4135;49.184;9.722;2023-04-03T06:18:34;12.15;;;1.52;;
8187;SDS011;4135;49.184;9.722;2023-04-03T06:21:04;2.80;;;1.60;;
8187;SDS011;4135;49.184;9.722;2023-04-03T06:23:34;5.03;;;1.60;;
8187;SDS011;4135;49.184;9.722;2023-04-03T06:26:03;2.55;;;1.25;;
8187;SDS011;4135;49.184;9.722;2023-04-03T06:28:34;4.35;;;1.40;;
8187;SDS011;4135;49.184;9.722;2023-04-03T06:31:04;3.00;;;1.33;;
8187;SDS011;4135;49.184;9.722;2023-04-03T06:33:33;3.45;;;1.90;;
8187;SDS011;4135;49.184;9.722;2023-04-03T06:36:04;6.95;;;1.67;;
8187;SDS011;4135;49.184;9.722;2023-04-03T06:38:34;5.57;;;1.83;;
8187;SDS011;4135;49.184;9.722;2023-04-03T06:41:04;4.28;;;1.45;;
8187;SDS011;4135;49.184;9.722;2023-04-03T06:43:34;5.80;;;1.70;;
8187;SDS011;4135;49.184;9.722;2023-04-03T06:46:03;4.60;;;1.38;;
8187;SDS011;4135;49.184;9.722;2023-04-03T06:48:34;4.10;;;1.38;;
8187;SDS011;4135;49.184;9.722;2023-04-03T06:51:03;5.75;;;1.50;;
8187;SDS011;4135;49.184;9.722;2023-04-03T06:53:33;4.72;;;1.38;;
8187;SDS011;4135;49.184;9.722;2023-04-03T06:56:03;4.75;;;1.35;;
8187;SDS011;4135;49.184;9.722;2023-04-03T06:58:32;6.95;;;1.73;;
8187;SDS011;4135;49.184;9.722;2023-04-03T07:01:02;5.57;;;1.67;;
8187;SDS011;4135;49.184;9.722;2023-04-03T07:03:31;2.45;;;1.10;;
8187;SDS011;4135;49.184;9.722;2023-04-03T07:06:01;6.70;;;1.48;;
8187;SDS011;4135;49.184;9.722;2023-04-03T07:08:31;3.40;;;1.40;;
8187;SDS011;4135;49.184;9.722;2023-04-03T07:11:02;3.40;;;1.48;;
8187;SDS011;4135;49.184;9.722;2023-04-03T07:13:32;4.10;;;1.67;;
8187;SDS011;4135;49.184;9.722;2023-04-03T07:16:01;6.30;;;1.73;;
8187;SDS011;4135;49.184;9.722;2023-04-03T07:18:33;4.10;;;1.70;;
8187;SDS011;4135;49.184;9.722;2023-04-03T07:21:04;6.93;;;1.58;;
8187;SDS011;4135;49.184;9.722;2023-04-03T07:23:33;3.83;;;1.30;;
8187;SDS011;4135;49.184;9.722;2023-04-03T07:26:03;5.32;;;1.25;;
8187;SDS011;4135;49.184;9.722;2023-04-03T07:28:33;4.13;;;1.40;;
8187;SDS011;4135;49.184;9.722;2023-04-03T07:31:03;5.10;;;1.45;;
8187;SDS011;4135;49.184;9.722;2023-04-03T07:33:36;8.77;;;1.65;;
8187;SDS011;4135;49.184;9.722;2023-04-03T07:36:06;5.35;;;1.65;;
8187;SDS011;4135;49.184;9.722;2023-04-03T07:38:37;4.55;;;1.50;;
8187;SDS011;4135;49.184;9.722;2023-04-03T07:41:06;2.58;;;1.50;;
8187;SDS011;4135;49.184;9.722;2023-04-03T07:43:42;2.47;;;1.33;;
8187;SDS011;4135;49.184;9.722;2023-04-03T07:46:12;6.65;;;1.55;;
8187;SDS011;4135;49.184;9.722;2023-04-03T07:48:42;9.50;;;1.92;;
8187;SDS011;4135;49.184;9.722;2023-04-03T07:51:11;4.03;;;1.60;;
8187;SDS011;4135;49.184;9.722;2023-04-03T07:53:41;7.10;;;1.98;;
8187;SDS011;4135;49.184;9.722;2023-04-03T07:56:11;2.95;;;1.27;;
8187;SDS011;4135;49.184;9.722;2023-04-03T07:58:40;2.38;;;1.27;;
8187;SDS011;4135;49.184;9.722;2023-04-03T08:01:10;2.20;;;1.30;;
8187;SDS011;4135;49.184;9.722;2023-04-03T08:03:39;2.47;;;1.20;;
8187;SDS011;4135;49.184;9.722;2023-04-03T08:06:09;5.75;;;1.33;;
8187;SDS011;4135;49.184;9.722;2023-04-03T08:08:39;3.78;;;1.40;;
8187;SDS011;4135;49.184;9.722;2023-04-03T08:11:09;4.47;;;1.30;;
8187;SDS011;4135;49.184;9.722;2023-04-03T08:13:39;5.70;;;1.20;;
8187;SDS011;4135;49.184;9.722;2023-04-03T08:16:11;4.05;;;1.75;;
8187;SDS011;4135;49.184;9.722;2023-04-03T08:18:44;1.70;;;1.20;;
8187;SDS011;4135;49.184;9.722;2023-04-03T08:21:14;4.40;;;1.50;;
8187;SDS011;4135;49.184;9.722;2023-04-03T08:23:43;3.22;;;1.52;;
8187;SDS011;4135;49.184;9.722;2023-04-03T08:26:14;4.95;;;1.20;;
8187;SDS011;4135;49.184;9.722;2023-04-03T08:28:44;2.80;;;1.38;;
8187;SDS011;4135;49.184;9.722;2023-04-03T08:31:15;2.63;;;1.17;;
8187;SDS011;4135;49.184;9.722;2023-04-03T08:33:47;3.67;;;1.35;;
8187;SDS011;4135;49.184;9.722;2023-04-03T08:36:19;10.73;;;2.00;;
8187;SDS011;4135;49.184;9.722;2023-04-03T08:38:53;3.80;;;1.40;;
8187;SDS011;4135;49.184;9.722;2023-04-03T08:47:04;3.83;;;1.48;;
8187;SDS011;4135;49.184;9.722;2023-04-03T08:49:47;4.35;;;1.52;;
8187;SDS011;4135;49.184;9.722;2023-04-03T08:55:13;2.97;;;1.65;;
8187;SDS011;4135;49.184;9.722;2023-04-03T08:58:26;3.53;;;1.63;;
8187;SDS011;4135;49.184;9.722;2023-04-03T09:03:29;3.38;;;1.23;;
8187;SDS011;4135;49.184;9.722;2023-04-03T09:06:06;3.50;;;1.65;;
8187;SDS011;4135;49.184;9.722;2023-04-03T09:09:00;4.57;;;1.55;;
8187;SDS011;4135;49.184;9.722;2023-04-03T09:12:31;3.78;;;1.75;;
8187;SDS011;4135;49.184;9.722;2023-04-03T09:23:27;7.15;;;1.92;;
8187;SDS011;4135;49.184;9.722;2023-04-03T09:26:17;4.85;;;1.20;;
8187;SDS011;4135;49.184;9.722;2023-04-03T09:29:17;8.35;;;1.48;;
8187;SDS011;4135;49.184;9.722;2023-04-03T09:31:50;6.95;;;1.40;;
8187;SDS011;4135;49.184;9.722;2023-04-03T09:34:36;3.35;;;1.30;;
8187;SDS011;4135;49.184;9.722;2023-04-03T09:37:07;5.72;;;1.67;;
8187;SDS011;4135;49.184;9.722;2023-04-03T09:39:51;4.88;;;1.50;;
8187;SDS011;4135;49.184;9.722;2023-04-03T09:42:23;9.25;;;1.58;;
8187;SDS011;4135;49.184;9.722;2023-04-03T09:44:55;9.75;;;1.60;;
8187;SDS011;4135;49.184;9.722;2023-04-03T09:52:42;3.67;;;1.67;;
8187;SDS011;4135;49.184;9.722;2023-04-03T09:57:46;3.85;;;1.60;;
8187;SDS011;4135;49.184;9.722;2023-04-03T10:00:21;3.25;;;1.60;;
8187;SDS011;4135;49.184;9.722;2023-04-03T10:02:57;7.50;;;1.42;;
8187;SDS011;4135;49.184;9.722;2023-04-03T10:05:31;3.30;;;1.58;;
8187;SDS011;4135;49.184;9.722;2023-04-03T10:10:41;3.85;;;1.63;;
8187;SDS011;4135;49.184;9.722;2023-04-03T10:13:14;3.08;;;1.30;;
8187;SDS011;4135;49.184;9.722;2023-04-03T10:15:57;4.25;;;1.67;;
8187;SDS011;4135;49.184;9.722;2023-04-03T10:18:45;1.88;;;1.30;;
8187;SDS011;4135;49.184;9.722;2023-04-03T10:21:28;8.90;;;1.73;;
8187;SDS011;4135;49.184;9.722;2023-04-03T10:24:19;9.50;;;2.38;;
8187;SDS011;4135;49.184;9.722;2023-04-03T10:29:35;9.13;;;2.35;;
8187;SDS011;4135;49.184;9.722;2023-04-03T10:34:57;6.25;;;2.00;;
8187;SDS011;4135;49.184;9.722;2023-04-03T10:37:52;4.30;;;1.67;;
8187;SDS011;4135;49.184;9.722;2023-04-03T10:40:45;5.40;;;2.20;;
8187;SDS011;4135;49.184;9.722;2023-04-03T10:44:08;12.82;;;1.95;;
8187;SDS011;4135;49.184;9.722;2023-04-03T10:46:42;4.38;;;2.00;;
8187;SDS011;4135;49.184;9.722;2023-04-03T10:52:22;7.78;;;1.80;;
8187;SDS011;4135;49.184;9.722;2023-04-03T10:57:42;4.88;;;1.63;;
8187;SDS011;4135;49.184;9.722;2023-04-03T11:00:19;4.35;;;1.60;;
8187;SDS011;4135;49.184;9.722;2023-04-03T11:10:54;5.35;;;1.88;;
8187;SDS011;4135;49.184;9.722;2023-04-03T11:13:30;4.18;;;1.35;;
8187;SDS011;4135;49.184;9.722;2023-04-03T11:16:04;4.75;;;1.45;;
8187;SDS011;4135;49.184;9.722;2023-04-03T11:18:37;6.22;;;2.10;;
8187;SDS011;4135;49.184;9.722;2023-04-03T11:22:01;4.07;;;2.00;;
8187;SDS011;4135;49.184;9.722;2023-04-03T11:24:15;8.55;;;1.58;;
8187;SDS011;4135;49.184;9.722;2023-04-03T11:26:50;3.72;;;1.38;;
8187;SDS011;4135;49.184;9.722;2023-04-03T11:29:23;4.40;;;1.48;;
8187;SDS011;4135;49.184;9.722;2023-04-03T11:32:07;2.53;;;1.30;;
8187;SDS011;4135;49.184;9.722;2023-04-03T11:34:50;5.20;;;1.75;;
8187;SDS011;4135;49.184;9.722;2023-04-03T11:37:31;2.65;;;1.63;;
8187;SDS011;4135;49.184;9.722;2023-04-03T11:40:19;4.70;;;1.65;;
8187;SDS011;4135;49.184;9.722;2023-04-03T11:45:34;5.05;;;1.65;;
8187;SDS011;4135;49.184;9.722;2023-04-03T11:51:02;5.72;;;2.30;;
8187;SDS011;4135;49.184;9.722;2023-04-03T11:54:34;7.43;;;1.42;;
8187;SDS011;4135;49.184;9.722;2023-04-03T11:57:22;2.38;;;1.40;;
8187;SDS011;4135;49.184;9.722;2023-04-03T12:22:07;5.05;;;1.70;;
8187;SDS011;4135;49.184;9.722;2023-04-03T12:24:44;3.78;;;1.70;;
8187;SDS011;4135;49.184;9.722;2023-04-03T12:41:08;2.72;;;1.48;;
8187;SDS011;4135;49.184;9.722;2023-04-03T12:46:52;4.53;;;1.55;;
8187;SDS011;4135;49.184;9.722;2023-04-03T12:49:26;2.60;;;1.25;;
8187;SDS011;4135;49.184;9.722;2023-04-03T12:52:19;6.05;;;1.50;;
8187;SDS011;4135;49.184;9.722;2023-04-03T12:55:01;2.75;;;1.60;;
8187;SDS011;4135;49.184;9.722;2023-04-03T12:57:33;2.35;;;1.77;;
8187;SDS011;4135;49.184;9.722;2023-04-03T13:00:18;3.88;;;1.55;;
8187;SDS011;4135;49.184;9.722;2023-04-03T13:02:48;3.08;;;1.00;;
8187;SDS011;4135;49.184;9.722;2023-04-03T13:05:18;7.75;;;1.67;;
8187;SDS011;4135;49.184;9.722;2023-04-03T13:07:52;3.58;;;1.48;;
8187;SDS011;4135;49.184;9.722;2023-04-03T13:10:30;5.00;;;1.13;;
8187;SDS011;4135;49.184;9.722;2023-04-03T13:13:08;4.15;;;1.67;;
8187;SDS011;4135;49.184;9.722;2023-04-03T13:15:47;4.13;;;1.30;;
8187;SDS011;4135;49.184;9.722;2023-04-03T13:18:25;5.13;;;1.60;;
8187;SDS011;4135;49.184;9.722;2023-04-03T13:21:17;2.88;;;1.02;;
8187;SDS011;4135;49.184;9.722;2023-04-03T13:23:53;3.97;;;1.60;;
8187;SDS011;4135;49.184;9.722;2023-04-03T13:26:28;2.63;;;0.80;;
8187;SDS011;4135;49.184;9.722;2023-04-03T13:29:01;2.17;;;1.00;;
8187;SDS011;4135;49.184;9.722;2023-04-03T13:31:34;5.40;;;1.05;;
8187;SDS011;4135;49.184;9.722;2023-04-03T13:34:06;3.92;;;1.02;;
8187;SDS011;4135;49.184;9.722;2023-04-03T13:36:39;2.40;;;0.75;;
8187;SDS011;4135;49.184;9.722;2023-04-03T13:41:43;2.15;;;1.25;;
8187;SDS011;4135;49.184;9.722;2023-04-03T13:46:54;1.85;;;1.05;;
8187;SDS011;4135;49.184;9.722;2023-04-03T13:52:01;2.28;;;0.90;;
8187;SDS011;4135;49.184;9.722;2023-04-03T13:54:56;5.25;;;1.30;;
8187;SDS011;4135;49.184;9.722;2023-04-03T13:57:28;1.73;;;1.27;;
8187;SDS011;4135;49.184;9.722;2023-04-03T13:59:58;2.47;;;1.27;;
8187;SDS011;4135;49.184;9.722;2023-04-03T14:02:31;3.08;;;1.30;;
8187;SDS011;4135;49.184;9.722;2023-04-03T14:05:03;4.85;;;1.70;;
8187;SDS011;4135;49.184;9.722;2023-04-03T14:07:37;1.95;;;1.40;;
8187;SDS011;4135;49.184;9.722;2023-04-03T14:10:06;9.60;;;1.67;;
8187;SDS011;4135;49.184;9.722;2023-04-03T14:12:37;2.75;;;1.00;;
8187;SDS011;4135;49.184;9.722;2023-04-03T14:15:15;3.58;;;1.60;;
8187;SDS011;4135;49.184;9.722;2023-04-03T14:17:53;4.32;;;1.20;;
8187;SDS011;4135;49.184;9.722;2023-04-03T14:20:25;1.80;;;1.20;;
8187;SDS011;4135;49.184;9.722;2023-04-03T14:22:55;6.95;;;0.93;;
8187;SDS011;4135;49.184;9.722;2023-04-03T14:25:25;4.50;;;1.48;;
8187;SDS011;4135;49.184;9.722;2023-04-03T14:27:55;5.53;;;1.15;;
8187;SDS011;4135;49.184;9.722;2023-04-03T14:30:27;3.10;;;1.38;;
8187;SDS011;4135;49.184;9.722;2023-04-03T14:33:00;4.07;;;1.65;;
8187;SDS011;4135;49.184;9.722;2023-04-03T14:35:29;7.47;;;1.13;;
8187;SDS011;4135;49.184;9.722;2023-04-03T14:37:59;2.00;;;1.42;;
8187;SDS011;4135;49.184;9.722;2023-04-03T14:40:29;3.60;;;1.50;;
8187;SDS011;4135;49.184;9.722;2023-04-03T14:42:58;4.57;;;1.00;;
8187;SDS011;4135;49.184;9.722;2023-04-03T14:45:28;3.53;;;1.30;;
8187;SDS011;4135;49.184;9.722;2023-04-03T14:47:57;2.22;;;1.33;;
8187;SDS011;4135;49.184;9.722;2023-04-03T14:50:28;2.35;;;1.00;;
8187;SDS011;4135;49.184;9.722;2023-04-03T14:52:58;3.45;;;0.98;;
8187;SDS011;4135;49.184;9.722;2023-04-03T14:55:27;4.57;;;1.33;;
8187;SDS011;4135;49.184;9.722;2023-04-03T14:57:57;2.40;;;0.77;;
8187;SDS011;4135;49.184;9.722;2023-04-03T15:00:27;2.53;;;1.10;;
8187;SDS011;4135;49.184;9.722;2023-04-03T15:02:56;2.45;;;1.23;;
8187;SDS011;4135;49.184;9.722;2023-04-03T15:05:26;2.53;;;1.33;;
8187;SDS011;4135;49.184;9.722;2023-04-03T15:07:56;3.53;;;1.58;;
8187;SDS011;4135;49.184;9.722;2023-04-03T15:10:29;4.18;;;1.20;;
8187;SDS011;4135;49.184;9.722;2023-04-03T15:12:59;3.25;;;1.40;;
8187;SDS011;4135;49.184;9.722;2023-04-03T15:15:29;0.93;;;0.70;;
8187;SDS011;4135;49.184;9.722;2023-04-03T15:17:59;3.67;;;1.63;;
8187;SDS011;4135;49.184;9.722;2023-04-03T15:20:29;5.18;;;1.25;;
8187;SDS011;4135;49.184;9.722;2023-04-03T15:23:00;2.20;;;1.40;;
8187;SDS011;4135;49.184;9.722;2023-04-03T15:25:30;2.63;;;0.95;;
8187;SDS011;4135;49.184;9.722;2023-04-03T15:28:00;4.03;;;1.60;;
8187;SDS011;4135;49.184;9.722;2023-04-03T15:30:30;2.35;;;1.23;;
8187;SDS011;4135;49.184;9.722;2023-04-03T15:33:00;5.72;;;1.58;;
8187;SDS011;4135;49.184;9.722;2023-04-03T15:35:29;3.42;;;1.85;;
8187;SDS011;4135;49.184;9.722;2023-04-03T15:37:59;4.70;;;1.63;;
8187;SDS011;4135;49.184;9.722;2023-04-03T15:40:29;9.45;;;1.65;;
8187;SDS011;4135;49.184;9.722;2023-04-03T15:42:58;4.20;;;1.48;;
8187;SDS011;4135;49.184;9.722;2023-04-03T15:45:28;4.78;;;1.30;;
8187;SDS011;4135;49.184;9.722;2023-04-03T15:47:58;5.90;;;1.10;;
8187;SDS011;4135;49.184;9.722;2023-04-03T15:50:28;6.35;;;1.73;;
8187;SDS011;4135;49.184;9.722;2023-04-03T15:52:58;5.10;;;1.75;;
8187;SDS011;4135;49.184;9.722;2023-04-03T15:55:29;5.30;;;1.73;;
8187;SDS011;4135;49.184;9.722;2023-04-03T15:58:00;6.07;;;1.33;;
8187;SDS011;4135;49.184;9.722;2023-04-03T16:00:30;3.30;;;1.63;;
8187;SDS011;4135;49.184;9.722;2023-04-03T16:03:04;6.90;;;1.40;;
8187;SDS011;4135;49.184;9.722;2023-04-03T16:05:39;5.00;;;1.50;;
8187;SDS011;4135;49.184;9.722;2023-04-03T16:08:09;4.97;;;1.55;;
8187;SDS011;4135;49.184;9.722;2023-04-03T16:10:39;4.82;;;1.50;;
8187;SDS011;4135;49.184;9.722;2023-04-03T16:13:09;5.55;;;1.35;;
8187;SDS011;4135;49.184;9.722;2023-04-03T16:15:39;2.78;;;1.55;;
8187;SDS011;4135;49.184;9.722;2023-04-03T16:18:09;4.65;;;1.30;;
8187;SDS011;4135;49.184;9.722;2023-04-03T16:20:39;7.07;;;1.42;;
8187;SDS011;4135;49.184;9.722;2023-04-03T16:23:09;6.63;;;1.70;;
8187;SDS011;4135;49.184;9.722;2023-04-03T16:25:38;3.95;;;1.42;;
8187;SDS011;4135;49.184;9.722;2023-04-03T16:28:08;3.38;;;1.35;;
8187;SDS011;4135;49.184;9.722;2023-04-03T16:30:38;2.30;;;1.13;;
8187;SDS011;4135;49.184;9.722;2023-04-03T16:33:12;1.85;;;1.40;;
8187;SDS011;4135;49.184;9.722;2023-04-03T16:35:42;2.65;;;1.33;;
8187;SDS011;4135;49.184;9.722;2023-04-03T16:38:12;2.42;;;0.98;;
8187;SDS011;4135;49.184;9.722;2023-04-03T16:40:42;4.82;;;1.33;;
8187;SDS011;4135;49.184;9.722;2023-04-03T16:43:12;3.08;;;0.70;;
8187;SDS011;4135;49.184;9.722;2023-04-03T16:45:41;2.58;;;1.35;;
8187;SDS011;4135;49.184;9.722;2023-04-03T16:48:11;2.40;;;1.00;;
8187;SDS011;4135;49.184;9.722;2023-04-03T16:50:45;3.47;;;1.30;;
8187;SDS011;4135;49.184;9.722;2023-04-03T16:53:16;1.83;;;1.05;;
8187;SDS011;4135;49.184;9.722;2023-04-03T16:55:46;1.25;;;0.93;;
8187;SDS011;4135;49.184;9.722;2023-04-03T16:58:16;2.88;;;1.35;;
8187;SDS011;4135;49.184;9.722;2023-04-03T17:00:46;7.95;;;1.42;;
8187;SDS011;4135;49.184;9.722;2023-04-03T17:03:16;2.80;;;1.40;;
8187;SDS011;4135;49.184;9.722;2023-04-03T17:05:48;6.97;;;1.35;;
8187;SDS011;4135;49.184;9.722;2023-04-03T17:08:18;2.20;;;1.17;;
8187;SDS011;4135;49.184;9.722;2023-04-03T17:10:48;5.25;;;1.23;;
8187;SDS011;4135;49.184;9.722;2023-04-03T17:13:19;2.63;;;0.90;;
8187;SDS011;4135;49.184;9.722;2023-04-03T17:15:49;3.70;;;1.23;;
8187;SDS011;4135;49.184;9.722;2023-04-03T17:18:18;3.35;;;1.20;;
8187;SDS011;4135;49.184;9.722;2023-04-03T17:20:48;1.65;;;0.90;;
8187;SDS011;4135;49.184;9.722;2023-04-03T17:23:17;1.35;;;1.15;;
8187;SDS011;4135;49.184;9.722;2023-04-03T17:25:47;2.63;;;1.20;;
8187;SDS011;4135;49.184;9.722;2023-04-03T17:28:16;2.05;;;1.08;;
8187;SDS011;4135;49.184;9.722;2023-04-03T17:30:46;2.60;;;1.30;;
8187;SDS011;4135;49.184;9.722;2023-04-03T17:33:16;3.22;;;1.10;;
8187;SDS011;4135;49.184;9.722;2023-04-03T17:35:45;3.80;;;1.52;;
8187;SDS011;4135;49.184;9.722;2023-04-03T17:38:15;9.18;;;2.45;;